createdAt,value
2024-01-24T00:01:02.020Z,9.40
2024-01-24T00:03:28.825Z,9.34
2024-01-24T00:05:55.395Z,9.29
2024-01-24T00:08:21.805Z,9.33
2024-01-24T00:10:48.426Z,9.36
2024-01-24T00:13:14.846Z,9.34
2024-01-24T00:15:41.416Z,9.38
2024-01-24T00:18:07.952Z,9.38
2024-01-24T00:20:34.408Z,9.29
2024-01-24T00:23:00.824Z,9.18
2024-01-24T00:25:27.305Z,9.20
2024-01-24T00:27:53.734Z,9.21
2024-01-24T00:30:20.205Z,9.27
2024-01-24T00:32:46.700Z,9.19
2024-01-24T00:35:13.157Z,9.28
2024-01-24T00:37:39.628Z,9.36
2024-01-24T00:40:07.608Z,9.35
2024-01-24T00:42:34.100Z,9.34
2024-01-24T00:45:00.687Z,9.46
2024-01-24T00:47:27.219Z,9.40
2024-01-24T00:49:53.669Z,9.46
2024-01-24T00:52:20.117Z,9.40
2024-01-24T00:54:46.962Z,9.38
2024-01-24T00:57:13.531Z,9.26
2024-01-24T00:59:39.989Z,9.29
2024-01-24T01:02:06.424Z,9.24
2024-01-24T01:04:33.034Z,9.24
2024-01-24T01:06:59.510Z,9.27
2024-01-24T01:09:25.954Z,9.28
2024-01-24T01:11:52.437Z,9.36
2024-01-24T01:14:18.955Z,9.49
2024-01-24T01:16:45.363Z,9.58
2024-01-24T01:19:11.973Z,9.67
2024-01-24T01:21:41.308Z,9.78
2024-01-24T01:24:09.471Z,9.90
2024-01-24T01:26:36.279Z,9.96
2024-01-24T01:29:03.067Z,9.97
2024-01-24T01:31:29.557Z,9.97
2024-01-24T01:33:56.868Z,9.98
2024-01-24T01:36:23.996Z,10.02
2024-01-24T01:38:51.101Z,10.04
2024-01-24T01:41:18.537Z,10.07
2024-01-24T01:43:45.621Z,10.06
2024-01-24T01:46:21.312Z,10.12
2024-01-24T01:48:50.716Z,10.10
2024-01-24T01:51:18.692Z,10.06
2024-01-24T01:53:46.951Z,10.05
2024-01-24T01:56:16.768Z,10.08
2024-01-24T01:58:45.118Z,10.09
2024-01-24T02:01:12.185Z,10.11
2024-01-24T02:03:39.126Z,10.14
2024-01-24T02:06:05.953Z,10.19
2024-01-24T02:08:36.464Z,10.19
2024-01-24T02:11:04.275Z,10.18
2024-01-24T02:13:32.693Z,10.14
2024-01-24T02:16:00.764Z,10.17
2024-01-24T02:18:27.481Z,10.22
2024-01-24T02:20:53.987Z,10.34
2024-01-24T02:23:23.390Z,10.36
2024-01-24T02:25:51.098Z,10.28
2024-01-24T02:28:17.744Z,10.30
2024-01-24T02:30:44.270Z,10.31
2024-01-24T02:33:11.029Z,10.24
2024-01-24T02:35:37.816Z,10.26
2024-01-24T02:38:04.474Z,10.31
2024-01-24T02:40:30.909Z,10.31
2024-01-24T02:42:57.391Z,10.30
2024-01-24T02:45:23.990Z,10.27
2024-01-24T02:47:50.795Z,10.24
2024-01-24T02:50:17.319Z,10.32
2024-01-24T02:52:43.851Z,10.34
2024-01-24T02:55:18.133Z,10.40
2024-01-24T02:57:45.221Z,10.53
2024-01-24T03:00:13.934Z,10.64
2024-01-24T03:02:41.061Z,10.82
2024-01-24T03:05:09.923Z,10.91
2024-01-24T03:07:37.571Z,10.97
2024-01-24T03:10:07.305Z,11.02
2024-01-24T03:12:34.153Z,11.04
2024-01-24T03:15:00.878Z,11.01
2024-01-24T03:17:27.363Z,10.96
2024-01-24T03:19:53.997Z,11.02
2024-01-24T03:22:21.219Z,10.97
2024-01-24T03:24:47.774Z,11.05
2024-01-24T03:27:14.271Z,10.99
2024-01-24T03:29:42.144Z,11.05
2024-01-24T03:32:08.565Z,11.12
2024-01-24T03:34:35.065Z,10.99
2024-01-24T03:37:01.587Z,10.81
2024-01-24T03:39:28.962Z,10.79
2024-01-24T03:41:55.429Z,10.81
2024-01-24T03:44:21.868Z,10.83
2024-01-24T03:46:48.367Z,10.84
2024-01-24T03:49:15.964Z,10.88
2024-01-24T03:51:42.629Z,10.93
2024-01-24T03:54:09.130Z,10.88
2024-01-24T03:56:35.598Z,11.00
2024-01-24T03:59:02.108Z,10.97
2024-01-24T04:01:28.757Z,11.02
2024-01-24T04:03:55.813Z,11.04
2024-01-24T04:06:22.523Z,11.06
2024-01-24T04:08:49.006Z,11.08
2024-01-24T04:11:15.538Z,11.13
2024-01-24T04:13:43.489Z,11.22
2024-01-24T04:16:09.983Z,11.26
2024-01-24T04:18:36.584Z,11.29
2024-01-24T04:21:03.275Z,11.31
2024-01-24T04:23:29.687Z,11.36
2024-01-24T04:25:56.760Z,11.40
2024-01-24T04:28:23.293Z,11.45
2024-01-24T04:30:49.807Z,11.42
2024-01-24T04:33:16.376Z,11.37
2024-01-24T04:35:42.882Z,11.29
2024-01-24T04:38:09.518Z,11.21
2024-01-24T04:40:36.011Z,11.12
2024-01-24T04:43:02.537Z,11.02
2024-01-24T04:45:29.160Z,10.91
2024-01-24T04:47:55.742Z,10.89
2024-01-24T04:50:23.042Z,10.92
2024-01-24T04:52:49.766Z,10.93
2024-01-24T04:55:16.554Z,11.01
2024-01-24T04:57:43.185Z,11.03
2024-01-24T05:00:11.006Z,11.02
2024-01-24T05:02:38.637Z,11.03
2024-01-24T05:05:08.038Z,11.06
2024-01-24T05:07:35.658Z,11.07
2024-01-24T05:10:04.497Z,10.99
2024-01-24T05:12:31.582Z,11.01
2024-01-24T05:14:58.461Z,11.01
2024-01-24T05:17:24.937Z,10.95
2024-01-24T05:19:51.392Z,11.13
2024-01-24T05:22:17.832Z,11.02
2024-01-24T05:24:46.233Z,10.98
2024-01-24T05:27:13.879Z,10.99
2024-01-24T05:29:40.583Z,10.95
2024-01-24T05:32:07.506Z,10.88
2024-01-24T05:34:34.006Z,10.92
2024-01-24T05:37:00.911Z,10.86
2024-01-24T05:39:27.514Z,10.87
2024-01-24T05:41:54.072Z,10.94
2024-01-24T05:44:21.276Z,10.93
2024-01-24T05:46:47.727Z,10.99
2024-01-24T05:49:14.388Z,10.92
2024-01-24T05:51:41.960Z,10.96
2024-01-24T05:54:08.393Z,11.04
2024-01-24T05:56:36.391Z,11.07
2024-01-24T05:59:02.843Z,11.12
2024-01-24T06:01:29.480Z,11.12
2024-01-24T06:03:56.149Z,11.13
2024-01-24T06:06:23.066Z,11.19
2024-01-24T06:08:49.653Z,11.17
2024-01-24T06:11:18.009Z,11.16
2024-01-24T06:13:44.957Z,11.22
2024-01-24T06:16:11.568Z,11.21
2024-01-24T06:18:38.104Z,11.19
2024-01-24T06:21:04.808Z,11.28
2024-01-24T06:23:31.238Z,11.37
2024-01-24T06:25:57.684Z,11.42
2024-01-24T06:28:24.124Z,11.51
2024-01-24T06:30:52.513Z,11.56
2024-01-24T06:33:19.110Z,11.61
2024-01-24T06:35:45.631Z,11.63
2024-01-24T06:38:12.074Z,11.68
2024-01-24T06:40:38.499Z,11.69
2024-01-24T06:43:05.003Z,11.73
2024-01-24T06:45:31.490Z,11.81
2024-01-24T06:47:59.045Z,11.85
2024-01-24T06:50:25.732Z,11.91
2024-01-24T06:52:52.356Z,11.97
2024-01-24T06:55:19.078Z,12.04
2024-01-24T06:57:45.776Z,12.03
2024-01-24T07:00:12.769Z,12.08
2024-01-24T07:02:39.317Z,12.08
2024-01-24T07:05:06.706Z,12.09
2024-01-24T07:07:33.735Z,12.16
2024-01-24T07:10:00.390Z,12.15
2024-01-24T07:12:26.994Z,12.11
2024-01-24T07:14:53.888Z,12.17
2024-01-24T07:17:20.765Z,12.19
2024-01-24T07:19:48.021Z,12.23
2024-01-24T07:22:15.210Z,12.22
2024-01-24T07:24:44.569Z,12.22
2024-01-24T07:27:11.122Z,12.24
2024-01-24T07:29:37.587Z,12.24
2024-01-24T07:32:04.820Z,12.27
2024-01-24T07:34:31.342Z,12.40
2024-01-24T07:36:57.864Z,12.41
2024-01-24T07:39:24.467Z,12.38
2024-01-24T07:41:50.918Z,12.41
2024-01-24T07:44:17.363Z,12.40
2024-01-24T07:46:44.467Z,12.37
2024-01-24T07:49:11.712Z,12.39
2024-01-24T07:51:38.937Z,12.38
2024-01-24T07:54:06.057Z,12.42
2024-01-24T07:56:32.699Z,12.44
2024-01-24T07:58:59.641Z,12.41
2024-01-24T08:01:26.306Z,12.46
2024-01-24T08:03:53.364Z,12.49
2024-01-24T08:06:20.181Z,12.54
2024-01-24T08:08:47.043Z,12.52
2024-01-24T08:11:13.592Z,12.57
2024-01-24T08:13:40.073Z,12.60
2024-01-24T08:16:08.838Z,12.61
2024-01-24T08:18:35.454Z,12.64
2024-01-24T08:21:02.820Z,12.61
2024-01-24T08:23:38.281Z,12.65
2024-01-24T08:26:10.948Z,12.66
2024-01-24T08:28:37.471Z,12.71
2024-01-24T08:31:04.572Z,12.77
2024-01-24T08:33:33.560Z,12.78
2024-01-24T08:36:00.434Z,12.81
2024-01-24T08:38:26.996Z,12.83
2024-01-24T08:40:53.487Z,12.84
2024-01-24T08:43:19.913Z,12.91
2024-01-24T08:45:49.566Z,12.96
2024-01-24T08:48:18.975Z,13.05
2024-01-24T08:50:45.621Z,13.11
2024-01-24T08:53:12.076Z,13.12
2024-01-24T08:55:38.881Z,13.21
2024-01-24T08:58:06.032Z,13.19
2024-01-24T09:00:32.644Z,13.23
2024-01-24T09:02:59.714Z,13.28
2024-01-24T09:05:26.832Z,13.24
2024-01-24T09:07:54.118Z,13.23
2024-01-24T09:10:20.916Z,13.17
2024-01-24T09:12:48.404Z,13.21
2024-01-24T09:15:16.410Z,13.30
2024-01-24T09:17:43.122Z,13.26
2024-01-24T09:20:10.721Z,13.26
2024-01-24T09:22:37.810Z,13.27
2024-01-24T09:25:07.943Z,13.24
2024-01-24T09:27:36.043Z,13.22
2024-01-24T09:30:02.730Z,13.22
2024-01-24T09:32:29.265Z,13.18
2024-01-24T09:34:56.164Z,13.12
2024-01-24T09:37:22.876Z,13.05
2024-01-24T09:39:51.760Z,13.11
2024-01-24T09:42:28.999Z,13.03
2024-01-24T09:44:59.714Z,12.94
2024-01-24T09:47:27.135Z,12.95
2024-01-24T09:49:53.941Z,13.01
2024-01-24T09:52:26.099Z,12.95
2024-01-24T09:55:00.189Z,12.94
2024-01-24T09:57:28.263Z,13.01
2024-01-24T09:59:55.520Z,12.90
2024-01-24T10:02:22.605Z,12.83
2024-01-24T10:04:52.241Z,12.74
2024-01-24T10:07:19.982Z,12.82
2024-01-24T10:09:47.906Z,12.85
2024-01-24T10:12:14.579Z,12.84
2024-01-24T10:14:43.995Z,12.85
2024-01-24T10:17:13.285Z,12.86
2024-01-24T10:19:40.570Z,12.87
2024-01-24T10:22:10.571Z,12.88
2024-01-24T10:24:38.085Z,12.88
2024-01-24T10:27:05.551Z,12.97
2024-01-24T10:29:32.295Z,13.04
2024-01-24T10:31:59.998Z,13.08
2024-01-24T10:34:29.965Z,13.09
2024-01-24T10:36:57.187Z,13.13
2024-01-24T10:39:26.491Z,13.14
2024-01-24T10:41:55.668Z,13.12
2024-01-24T10:44:26.219Z,13.05
2024-01-24T10:46:53.245Z,13.03
2024-01-24T10:49:24.404Z,13.01
2024-01-24T10:51:51.848Z,13.08
2024-01-24T10:54:18.542Z,13.13
2024-01-24T10:56:48.257Z,13.23
2024-01-24T10:59:17.013Z,13.27
2024-01-24T11:01:43.535Z,13.29
2024-01-24T11:04:12.796Z,13.18
2024-01-24T11:06:48.155Z,13.23
2024-01-24T11:09:27.788Z,13.33
2024-01-24T11:11:58.675Z,13.32
2024-01-24T11:14:33.280Z,13.32
2024-01-24T11:17:03.345Z,13.31
2024-01-24T11:19:33.393Z,13.37
2024-01-24T11:22:13.259Z,13.40
2024-01-24T11:24:47.145Z,13.30
2024-01-24T11:27:34.083Z,13.30
2024-01-24T11:30:08.306Z,13.35
2024-01-24T11:33:01.029Z,13.38
2024-01-24T11:35:27.640Z,13.33
2024-01-24T11:37:59.553Z,13.43
2024-01-24T11:40:40.359Z,13.56
2024-01-24T11:43:07.314Z,13.60
2024-01-24T11:45:35.411Z,13.61
2024-01-24T11:48:02.347Z,13.58
2024-01-24T11:50:29.094Z,13.50
2024-01-24T11:53:00.394Z,13.54
2024-01-24T11:55:28.899Z,13.55
2024-01-24T11:57:56.064Z,13.57
2024-01-24T12:00:24.263Z,13.55
2024-01-24T12:02:51.218Z,13.49
2024-01-24T12:05:17.971Z,13.60
2024-01-24T12:07:44.536Z,13.54
2024-01-24T12:10:11.119Z,13.55
2024-01-24T12:12:38.424Z,13.55
2024-01-24T12:15:05.913Z,13.61
2024-01-24T12:17:35.847Z,13.66
2024-01-24T12:20:08.786Z,13.78
2024-01-24T12:22:36.264Z,13.73
2024-01-24T12:25:02.802Z,13.70
2024-01-24T12:27:29.584Z,13.69
2024-01-24T12:29:56.382Z,13.73
2024-01-24T12:32:23.300Z,13.66
2024-01-24T12:34:50.154Z,13.71
2024-01-24T12:37:20.726Z,13.72
2024-01-24T12:39:52.306Z,13.65
2024-01-24T12:42:19.102Z,13.71
2024-01-24T12:44:45.720Z,13.71
2024-01-24T12:47:12.733Z,13.71
2024-01-24T12:49:39.483Z,13.77
2024-01-24T12:52:06.272Z,13.77
2024-01-24T12:54:32.804Z,13.77
2024-01-24T12:56:59.449Z,13.76
2024-01-24T12:59:26.008Z,13.78
2024-01-24T13:01:57.082Z,13.82
2024-01-24T13:04:23.648Z,13.82
2024-01-24T13:06:50.419Z,13.91
2024-01-24T13:09:17.191Z,13.90
2024-01-24T13:11:43.682Z,13.89
2024-01-24T13:14:10.825Z,13.94
2024-01-24T13:16:37.292Z,13.93
2024-01-24T13:19:03.801Z,13.99
2024-01-24T13:21:30.343Z,13.98
2024-01-24T13:24:01.533Z,14.00
2024-01-24T13:26:29.218Z,13.95
2024-01-24T13:28:55.921Z,14.01
2024-01-24T13:31:22.670Z,14.03
2024-01-24T13:33:50.588Z,14.07
2024-01-24T13:36:17.983Z,14.07
2024-01-24T13:38:44.761Z,14.09
2024-01-24T13:41:12.613Z,14.12
2024-01-24T13:43:39.155Z,14.17
2024-01-24T13:46:06.598Z,14.14
2024-01-24T13:48:33.262Z,14.07
2024-01-24T13:51:01.109Z,14.01
2024-01-24T13:53:27.589Z,14.01
2024-01-24T13:55:54.084Z,13.95
2024-01-24T13:58:21.186Z,14.01
2024-01-24T14:00:48.323Z,14.01
2024-01-24T14:03:15.724Z,13.98
2024-01-24T14:05:42.835Z,13.81
2024-01-24T14:08:09.555Z,13.82
2024-01-24T14:10:36.068Z,13.84
2024-01-24T14:13:03.124Z,13.88
2024-01-24T14:15:34.725Z,13.96
2024-01-24T14:18:03.730Z,13.98
2024-01-24T14:20:30.260Z,14.05
2024-01-24T14:22:56.990Z,14.13
2024-01-24T14:25:23.426Z,14.18
2024-01-24T14:27:50.075Z,14.22
2024-01-24T14:30:16.755Z,14.28
2024-01-24T14:32:43.313Z,14.26
2024-01-24T14:35:10.053Z,14.27
2024-01-24T14:37:36.890Z,14.30
2024-01-24T14:40:04.135Z,14.29
2024-01-24T14:42:30.790Z,14.31
2024-01-24T14:45:00.142Z,14.43
2024-01-24T14:47:27.046Z,14.39
2024-01-24T14:49:54.030Z,14.35
2024-01-24T14:52:20.598Z,14.17
2024-01-24T14:54:47.044Z,13.87
2024-01-24T14:57:13.606Z,13.83
2024-01-24T14:59:41.456Z,13.71
2024-01-24T15:02:08.216Z,13.73
2024-01-24T15:04:34.773Z,13.79
2024-01-24T15:07:01.447Z,13.85
2024-01-24T15:09:28.446Z,13.97
2024-01-24T15:11:55.856Z,13.94
2024-01-24T15:14:22.401Z,13.90
2024-01-24T15:16:48.794Z,13.90
2024-01-24T15:19:15.540Z,13.89
2024-01-24T15:21:42.325Z,13.93
2024-01-24T15:24:10.069Z,13.87
2024-01-24T15:26:37.300Z,13.81
2024-01-24T15:29:04.241Z,13.83
2024-01-24T15:31:30.729Z,13.75
2024-01-24T15:33:57.382Z,13.90
2024-01-24T15:36:23.935Z,13.81
2024-01-24T15:38:51.273Z,13.91
2024-01-24T15:41:19.991Z,13.84
2024-01-24T15:43:46.747Z,13.77
2024-01-24T15:46:13.782Z,13.86
2024-01-24T15:48:41.585Z,13.92
2024-01-24T15:51:08.875Z,13.92
2024-01-24T15:53:35.451Z,13.90
2024-01-24T15:56:02.803Z,13.95
2024-01-24T15:58:29.746Z,13.92
2024-01-24T16:00:56.235Z,13.97
2024-01-24T16:03:27.085Z,13.95
2024-01-24T16:05:53.708Z,14.00
2024-01-24T16:08:22.757Z,13.94
2024-01-24T16:10:50.538Z,13.91
2024-01-24T16:13:17.440Z,13.92
2024-01-24T16:15:43.974Z,13.88
2024-01-24T16:18:10.869Z,13.88
2024-01-24T16:20:37.330Z,13.98
2024-01-24T16:23:04.269Z,13.85
2024-01-24T16:25:30.787Z,13.82
2024-01-24T16:27:57.324Z,13.91
2024-01-24T16:30:26.619Z,13.81
2024-01-24T16:32:55.298Z,13.77
2024-01-24T16:35:22.135Z,13.70
2024-01-24T16:37:49.064Z,13.70
2024-01-24T16:40:16.510Z,13.74
2024-01-24T16:42:43.063Z,13.70
2024-01-24T16:45:10.359Z,13.62
2024-01-24T16:47:37.010Z,13.68
2024-01-24T16:50:06.680Z,13.71
2024-01-24T16:52:33.209Z,13.71
2024-01-24T16:54:59.735Z,13.68
2024-01-24T16:57:26.335Z,13.66
2024-01-24T16:59:52.791Z,13.61
2024-01-24T17:02:19.260Z,13.62
2024-01-24T17:04:46.826Z,13.63
2024-01-24T17:07:13.613Z,13.70
2024-01-24T17:09:40.987Z,13.59
2024-01-24T17:12:11.080Z,13.60
2024-01-24T17:14:39.239Z,13.55
2024-01-24T17:17:08.119Z,13.61
2024-01-24T17:19:34.594Z,13.55
2024-01-24T17:22:01.231Z,13.53
2024-01-24T17:24:27.735Z,13.54
2024-01-24T17:26:54.546Z,13.54
2024-01-24T17:29:21.025Z,13.48
2024-01-24T17:31:47.884Z,13.45
2024-01-24T17:34:14.516Z,13.43
2024-01-24T17:36:41.321Z,13.49
2024-01-24T17:39:07.907Z,13.46
2024-01-24T17:41:35.338Z,13.48
2024-01-24T17:44:01.976Z,13.43
2024-01-24T17:46:29.167Z,13.44
2024-01-24T17:48:55.736Z,13.47
2024-01-24T17:51:22.734Z,13.52
2024-01-24T17:53:49.488Z,13.48
2024-01-24T17:56:16.164Z,13.51
2024-01-24T17:58:42.763Z,13.43
2024-01-24T18:01:09.406Z,13.42
2024-01-24T18:03:36.691Z,13.35
2024-01-24T18:06:03.431Z,13.25
2024-01-24T18:08:29.960Z,13.09
2024-01-24T18:10:58.345Z,12.73
2024-01-24T18:13:26.055Z,12.94
2024-01-24T18:15:52.606Z,13.04
2024-01-24T18:18:19.682Z,12.85
2024-01-24T18:20:46.144Z,12.55
2024-01-24T18:23:12.618Z,12.28
2024-01-24T18:25:39.063Z,12.19
2024-01-24T18:28:06.453Z,12.40
2024-01-24T18:30:33.029Z,12.38
2024-01-24T18:32:59.535Z,12.20
2024-01-24T18:35:27.691Z,12.13
2024-01-24T18:37:54.093Z,12.29
2024-01-24T18:40:20.491Z,12.19
2024-01-24T18:42:47.452Z,12.21
2024-01-24T18:45:16.641Z,12.19
2024-01-24T18:47:43.404Z,11.98
2024-01-24T18:50:11.032Z,11.92
2024-01-24T18:52:38.359Z,11.94
2024-01-24T18:55:06.001Z,12.07
2024-01-24T18:57:33.020Z,11.92
2024-01-24T18:59:59.999Z,11.92
2024-01-24T19:02:26.887Z,11.95
2024-01-24T19:04:53.775Z,11.85
2024-01-24T19:07:20.577Z,11.81
2024-01-24T19:09:47.423Z,11.70
2024-01-24T19:12:14.270Z,11.72
2024-01-24T19:14:42.952Z,11.66
2024-01-24T19:17:09.815Z,11.71
2024-01-24T19:19:36.407Z,11.69
2024-01-24T19:22:03.734Z,11.77
2024-01-24T19:24:30.589Z,11.74
2024-01-24T19:26:57.701Z,11.67
2024-01-24T19:29:25.312Z,11.56
2024-01-24T19:31:52.040Z,11.52
2024-01-24T19:34:22.078Z,11.66
2024-01-24T19:36:48.682Z,11.72
2024-01-24T19:39:15.596Z,11.64
2024-01-24T19:41:42.057Z,11.70
2024-01-24T19:44:08.527Z,11.72
2024-01-24T19:46:35.365Z,11.58
2024-01-24T19:49:01.980Z,11.66
2024-01-24T19:51:28.943Z,11.65
2024-01-24T19:53:56.321Z,11.63
2024-01-24T19:56:23.048Z,11.52
2024-01-24T19:58:49.542Z,11.59
2024-01-24T20:01:16.098Z,11.39
2024-01-24T20:03:42.647Z,11.30
2024-01-24T20:06:09.170Z,11.41
2024-01-24T20:08:35.792Z,11.44
2024-01-24T20:11:02.547Z,11.36
2024-01-24T20:13:29.037Z,11.38
2024-01-24T20:15:58.464Z,11.25
2024-01-24T20:18:25.549Z,11.12
2024-01-24T20:20:52.046Z,11.12
2024-01-24T20:23:18.474Z,10.91
2024-01-24T20:25:44.961Z,10.90
2024-01-24T20:28:11.544Z,10.93
2024-01-24T20:30:38.075Z,10.91
2024-01-24T20:33:05.563Z,10.96
2024-01-24T20:35:32.622Z,10.87
2024-01-24T20:37:59.943Z,10.97
2024-01-24T20:40:26.502Z,10.96
2024-01-24T20:42:53.106Z,10.76
2024-01-24T20:45:19.582Z,10.83
2024-01-24T20:47:46.223Z,10.81
2024-01-24T20:50:13.637Z,10.86
2024-01-24T20:52:40.364Z,10.70
2024-01-24T20:55:07.207Z,10.68
2024-01-24T20:57:34.557Z,10.72
2024-01-24T21:00:02.491Z,10.63
2024-01-24T21:02:29.131Z,10.55
2024-01-24T21:04:55.749Z,10.42
2024-01-24T21:07:22.590Z,10.41
2024-01-24T21:09:49.133Z,10.38
2024-01-24T21:12:15.632Z,10.39
2024-01-24T21:14:42.361Z,10.46
2024-01-24T21:17:08.856Z,10.55
2024-01-24T21:19:35.378Z,10.71
2024-01-24T21:22:02.052Z,10.57
2024-01-24T21:24:28.617Z,10.64
2024-01-24T21:26:55.094Z,10.64
2024-01-24T21:29:21.556Z,10.49
2024-01-24T21:31:48.079Z,10.62
2024-01-24T21:34:15.986Z,10.63
2024-01-24T21:36:47.881Z,10.71
2024-01-24T21:39:15.866Z,10.71
2024-01-24T21:41:42.254Z,10.74
2024-01-24T21:44:08.672Z,10.70
2024-01-24T21:46:35.178Z,10.81
2024-01-24T21:49:01.715Z,10.74
2024-01-24T21:51:28.133Z,10.79
2024-01-24T21:53:54.629Z,10.82
2024-01-24T21:56:21.105Z,10.84
2024-01-24T21:58:47.648Z,10.93
2024-01-24T22:01:14.646Z,10.97
2024-01-24T22:03:41.250Z,10.88
2024-01-24T22:06:08.158Z,10.90
2024-01-24T22:08:35.036Z,10.85
2024-01-24T22:11:01.724Z,10.86
2024-01-24T22:13:28.162Z,10.73
2024-01-24T22:15:55.601Z,10.57
2024-01-24T22:18:27.728Z,10.57
2024-01-24T22:21:00.061Z,10.54
2024-01-24T22:23:26.467Z,10.65
2024-01-24T22:25:53.061Z,10.52
2024-01-24T22:28:19.833Z,10.50
2024-01-24T22:30:46.563Z,10.51
2024-01-24T22:33:13.289Z,10.49
2024-01-24T22:35:39.958Z,10.49
2024-01-24T22:38:06.491Z,10.50
2024-01-24T22:40:33.523Z,10.48
2024-01-24T22:43:00.372Z,10.54
2024-01-24T22:45:27.165Z,10.56
2024-01-24T22:47:55.525Z,10.58
2024-01-24T22:50:22.228Z,10.52
2024-01-24T22:52:48.782Z,10.57
2024-01-24T22:55:15.524Z,10.66
2024-01-24T22:57:47.856Z,10.67
2024-01-24T23:00:15.600Z,10.67
2024-01-24T23:02:42.015Z,10.72
2024-01-24T23:05:08.844Z,10.68
2024-01-24T23:07:35.555Z,10.68
2024-01-24T23:10:02.181Z,10.64
2024-01-24T23:12:28.653Z,10.65
2024-01-24T23:14:55.441Z,10.59
2024-01-24T23:17:21.977Z,10.73
2024-01-24T23:19:50.933Z,10.74
2024-01-24T23:22:19.337Z,10.79
2024-01-24T23:24:46.480Z,10.65
2024-01-24T23:27:13.365Z,10.74
2024-01-24T23:29:39.791Z,10.67
2024-01-24T23:32:06.937Z,10.68
2024-01-24T23:34:33.502Z,10.71
2024-01-24T23:37:00.321Z,10.77
2024-01-24T23:39:26.884Z,10.74
2024-01-24T23:41:53.329Z,10.77
2024-01-24T23:44:19.802Z,10.67
2024-01-24T23:46:46.510Z,10.68
2024-01-24T23:49:13.143Z,10.73
2024-01-24T23:51:39.912Z,10.77
2024-01-24T23:54:06.768Z,10.88
2024-01-24T23:56:33.177Z,11.04
2024-01-24T23:58:59.592Z,11.09
